Latest Weather Observations for Parafield

IDS60901

Issued at 6:41 am CDT Thursday 29 January 2015 (issued every 10 minutes, with the page automatically refreshed every 10 minutes)

About weather observations | Map of Adelaide area stations | Latest observations for Adelaide area | Other Formats
Station Details ID: 023013 Name: PARAFIELD AIRPORT Lat: -34.80 Lon: 138.63 Height: 9.5 m
Data from the previous 72 hours. | See also: Recent months at Parafield
Date/Time
CDT
Tmp

°C
App
Tmp
°C
Dew
Point
°C
Rel
Hum
%
Delta-T

°C
Wind Press
QNH
hPa
Press
MSL
hPa
Rain
since
9 am
mm
Dir
 
Spd
km/h
Gust
km/h
Spd
kts
Gust
kts
29/06:30am 18.1 10.4 6.9 48 5.6 ESE 37 48 20 26 1015.3 1015.3 0.0
29/06:00am 18.3 9.8 7.1 48 5.6 ESE 41 52 22 28 1014.9 1014.9 0.0
29/05:30am 18.8 10.4 7.3 47 5.8 ESE 41 57 22 31 1014.7 1014.7 0.0
29/05:00am 19.1 11.4 7.2 46 6.0 ESE 37 48 20 26 1014.7 1014.7 0.0
29/04:30am 19.2 11.5 7.3 46 6.0 ESE 37 48 20 26 1014.6 1014.6 0.0
29/04:00am 19.6 12.0 7.4 45 6.2 ESE 37 46 20 25 1014.5 1014.5 0.0
29/03:30am 19.5 11.7 8.2 48 5.8 ESE 39 52 21 28 1014.6 1014.6 0.0
29/03:00am 19.7 12.9 9.3 51 5.5 ESE 35 46 19 25 1014.6 1014.6 0.0
29/02:34am 19.6 13.7 10.3 55 5.0 ESE 32 50 17 27 1014.6 1014.6 0.0
29/02:30am 19.4 13.6 10.7 57 4.7 ESE 32 43 17 23 1014.6 1014.6 0.0
29/02:00am 19.0 13.9 12.0 64 3.9 SE 30 39 16 21 1014.8 1014.8 0.0
29/01:50am 18.9 14.4 12.6 67 3.5 SE 28 37 15 20 1014.9 1014.9 0.0
29/01:30am 16.4 16.0 12.4 77 2.2 S 6 7 3 4 1015.3 1015.3 0.0
29/01:00am 15.9 14.8 12.1 78 2.1 S 9 17 5 9 1015.6 1015.6 0.0
29/12:30am 16.1 14.8 12.5 79 2.0 S 11 15 6 8 1015.6 1015.6 0.0
29/12:00am 16.9 15.3 12.8 77 2.3 S 13 17 7 9 1015.9 1015.9 0.0
 
Date/Time
CDT
Tmp

°C
App
Tmp
°C
Dew
Point
°C
Rel
Hum
%
Delta-T

°C
Wind Press
QNH
hPa
Press
MSL
hPa
Rain
since
9 am
mm
Dir
 
Spd
km/h
Gust
km/h
Spd
kts
Gust
kts
28/11:30pm 16.3 14.7 12.7 79 2.0 SSW 13 15 7 8 1016.1 1016.1 0.0
28/11:00pm 17.4 14.6 12.5 73 2.7 S 19 24 10 13 1016.3 1016.3 0.0
28/10:30pm 18.5 15.5 12.5 68 3.3 SSE 20 26 11 14 1016.2 1016.2 0.0
28/10:00pm 18.5 15.5 11.8 65 3.7 SSE 19 26 10 14 1016.3 1016.3 0.0
28/09:30pm 18.7 15.5 11.3 62 4.0 S 19 26 10 14 1016.2 1016.2 0.0
28/09:00pm 18.9 16.3 10.7 59 4.4 S 15 24 8 13 1016.0 1016.0 0.0
28/08:30pm 20.6 17.5 10.4 52 5.5 SSE 17 22 9 12 1015.8 1015.8 0.0
28/08:00pm 21.9 17.7 9.8 46 6.5 SSE 22 32 12 17 1015.5 1015.5 0.0
28/07:30pm 23.4 19.7 9.4 41 7.6 SSE 19 30 10 16 1015.3 1015.3 0.0
28/07:00pm 24.2 20.1 8.6 37 8.4 SE 20 26 11 14 1015.1 1015.1 0.0
28/06:30pm 24.7 20.9 9.0 37 8.5 SE 19 26 10 14 1015.0 1015.0 0.0
28/06:00pm 24.9 19.5 8.0 34 9.0 SSE 26 37 14 20 1014.8 1014.8 0.0
28/05:30pm 25.7 21.3 7.3 31 9.7 SE 20 37 11 20 1014.6 1014.6 0.0
28/05:00pm 25.8 21.4 7.4 31 9.7 SSE 20 30 11 16 1014.7 1014.7 0.0
28/04:30pm 27.2 23.0 7.6 29 10.5 SE 19 28 10 15 1014.8 1014.8 0.0
28/04:00pm 26.3 21.8 6.3 28 10.4 SE 19 30 10 16 1015.0 1015.0 0.0
28/03:30pm 25.7 20.8 6.8 30 9.9 ESE 22 32 12 17 1015.1 1015.1 0.0
28/03:00pm 25.2 19.8 6.4 30 9.7 SE 24 33 13 18 1015.4 1015.4 0.0
28/02:30pm 24.9 20.0 5.2 28 10.0 ESE 20 30 11 16 1015.7 1015.7 0.0
28/02:00pm 24.6 20.4 5.9 30 9.6 SSE 17 28 9 15 1016.2 1016.2 0.0
28/01:30pm 24.2 19.0 5.5 30 9.5 S 22 33 12 18 1016.6 1016.6 0.0
28/01:00pm 23.1 18.7 6.4 34 8.5 SSE 19 37 10 20 1016.9 1016.9 0.0
28/12:30pm 23.1 19.1 6.8 35 8.4 SSE 17 28 9 15 1017.2 1017.2 0.0
28/12:00pm 21.2 16.8 6.7 39 7.4 ESE 19 30 10 16 1017.5 1017.5 0.0
28/11:30am 21.5 17.8 6.2 37 7.7 SSE 15 26 8 14 1017.8 1017.8 0.0
28/11:00am 19.6 15.8 6.0 41 6.7 E 15 28 8 15 1018.4 1018.4 0.0
28/10:30am 18.7 14.6 6.2 44 6.2 ESE 17 24 9 13 1018.4 1018.4 0.0
28/10:00am 18.3 13.9 6.5 46 5.9 SSE 19 28 10 15 1018.4 1018.4 0.0
28/09:30am 17.5 13.6 7.3 51 5.1 SE 17 26 9 14 1018.5 1018.5 0.0
28/09:00am 16.2 11.8 7.2 55 4.5 SE 20 30 11 16 1018.4 1018.4 0.0
28/08:30am 15.7 10.5 7.2 57 4.2 SE 24 37 13 20 1018.4 1018.4 0.0
28/08:00am 14.9 10.4 7.0 59 3.9 SE 20 30 11 16 1018.3 1018.3 0.0
28/07:30am 13.8 10.6 6.9 63 3.3 SE 13 20 7 11 1018.0 1018.0 0.0
28/07:00am 13.2 10.3 6.5 64 3.2 SE 11 15 6 8 1017.2 1017.2 0.0
28/06:30am 13.0 9.0 6.6 65 3.1 ESE 17 28 9 15 1016.8 1016.8 0.0
28/06:00am 13.1 8.7 6.7 65 3.1 SE 19 24 10 13 1016.5 1016.5 0.0
28/05:30am 12.9 8.5 6.7 66 3.0 ESE 19 28 10 15 1016.4 1016.4 0.0
28/05:00am 13.5 9.5 6.8 64 3.2 SE 17 22 9 12 1016.5 1016.5 0.0
28/04:30am 13.7 9.7 6.6 62 3.4 SE 17 24 9 13 1016.5 1016.5 0.0
28/04:00am 14.3 9.0 6.6 60 3.7 SE 24 37 13 20 1016.5 1016.5 0.0
28/03:30am 14.8 10.5 6.9 59 3.9 SE 19 26 10 14 1016.6 1016.6 0.0
28/03:00am 15.1 9.1 7.2 59 3.9 SE 28 39 15 21 1016.8 1016.8 0.0
28/02:30am 15.6 9.9 8.4 62 3.6 SE 28 35 15 19 1016.9 1016.9 0.0
28/02:00am 15.7 11.4 9.4 66 3.3 SE 22 30 12 16 1017.1 1017.1 0.0
28/01:30am 15.9 12.0 9.6 66 3.3 SE 20 28 11 15 1017.5 1017.5 0.0
28/01:00am 15.7 12.5 9.8 68 3.1 SSE 17 26 9 14 1017.8 1017.8 0.0
28/12:30am 14.8 12.7 9.6 71 2.7 S 11 19 6 10 1017.9 1017.9 0.0
28/12:00am 14.9 11.6 9.5 70 2.8 S 17 20 9 11 1017.7 1017.7 0.0
 
Date/Time
CDT
Tmp

°C
App
Tmp
°C
Dew
Point
°C
Rel
Hum
%
Delta-T

°C
Wind Press
QNH
hPa
Press
MSL
hPa
Rain
since
9 am
mm
Dir
 
Spd
km/h
Gust
km/h
Spd
kts
Gust
kts
27/11:30pm 15.4 12.0 9.3 67 3.1 S 17 22 9 12 1017.8 1017.8 0.0
27/11:00pm 15.0 12.2 8.7 66 3.2 S 13 19 7 10 1017.9 1017.9 0.0
27/10:30pm 15.3 12.2 8.8 65 3.3 S 15 20 8 11 1018.1 1018.1 0.0
27/10:00pm 15.4 12.2 8.6 64 3.5 S 15 20 8 11 1018.0 1018.0 0.0
27/09:30pm 16.2 12.1 8.7 61 3.8 S 20 26 11 14 1017.7 1017.7 0.0
27/09:00pm 16.6 11.3 8.6 59 4.1 SSE 26 39 14 21 1017.3 1017.3 0.0
27/08:30pm 17.2 11.4 8.1 55 4.6 SSE 28 39 15 21 1016.9 1016.9 0.0
27/08:00pm 18.1 12.7 7.8 51 5.2 SSE 26 37 14 20 1016.8 1016.8 0.0
27/07:30pm 19.0 13.0 7.1 46 6.0 SSE 28 39 15 21 1016.5 1016.5 0.0
27/07:00pm 19.8 13.8 6.9 43 6.5 SSE 28 39 15 21 1016.2 1016.2 0.0
27/06:30pm 20.4 13.9 6.7 41 6.9 SSE 30 35 16 19 1016.1 1016.1 0.0
27/06:00pm 21.2 15.2 7.1 40 7.2 SSE 28 41 15 22 1016.0 1016.0 0.0
27/05:30pm 22.2 16.3 7.6 39 7.6 SSE 28 41 15 22 1015.6 1015.6 0.0
27/05:00pm 21.9 15.9 7.0 38 7.6 S 28 39 15 21 1015.6 1015.6 0.0
27/04:30pm 22.6 17.8 7.2 37 8.0 SSE 22 33 12 18 1015.6 1015.6 0.0
27/04:00pm 24.3 19.6 7.9 35 8.7 SE 22 33 12 18 1015.5 1015.5 0.0
27/03:30pm 23.0 17.8 7.1 36 8.2 S 24 33 13 18 1015.6 1015.6 0.0
27/03:00pm 23.8 18.9 7.0 34 8.7 S 22 32 12 17 1015.8 1015.8 0.0
27/02:30pm 23.6 18.2 6.4 33 8.8 SSE 24 33 13 18 1016.1 1016.1 0.0
27/02:00pm 23.2 18.8 6.5 34 8.6 SE 19 32 10 17 1016.2 1016.2 0.0
27/01:30pm 23.4 18.9 6.2 33 8.8 SE 19 35 10 19 1016.6 1016.6 0.0
27/01:00pm 22.6 18.1 6.8 36 8.1 SSE 20 32 11 17 1016.9 1016.9 0.0
27/12:30pm 21.8 17.8 6.5 37 7.8 SSE 17 32 9 17 1017.3 1017.3 0.0
27/12:00pm 20.6 16.0 5.8 38 7.3 S 19 26 10 14 1017.5 1017.5 0.0
27/11:30am 20.8 17.5 6.4 39 7.2 SSE 13 22 7 12 1017.8 1017.8 0.0
27/11:00am 19.7 15.6 6.1 41 6.8 SE 17 24 9 13 1018.0 1018.0 0.0
27/10:30am 19.7 16.5 6.8 43 6.5 SE 13 22 7 12 1018.2 1018.2 0.0
27/10:00am 19.1 14.4 5.9 42 6.5 SE 20 26 11 14 1018.4 1018.4 0.0
27/09:30am 18.2 13.4 5.4 43 6.2 SE 20 28 11 15 1018.5 1018.5 0.0
27/09:00am 17.3 10.9 5.3 45 5.8 SE 28 35 15 19 1018.5 1018.5 0.0
27/08:30am 16.7 12.1 5.6 48 5.3 SE 19 32 10 17 1018.3 1018.3 0.0
27/08:00am 15.8 10.4 6.5 54 4.5 ESE 24 37 13 20 1018.1 1018.1 0.0
27/07:30am 14.5 9.2 6.8 60 3.7 ESE 24 35 13 19 1017.8 1017.8 0.0
27/07:00am 13.9 7.8 6.7 62 3.5 ESE 28 37 15 20 1017.5 1017.5 0.0
27/06:30am 13.5 8.7 5.4 58 3.8 ESE 20 30 11 16 1017.5 1017.5 0.0
27/06:00am 13.6 8.1 5.7 59 3.7 ESE 24 35 13 19 1017.1 1017.1 0.0
27/05:30am 14.0 8.5 6.1 59 3.8 ESE 24 33 13 18 1016.7 1016.7 0.0
27/05:00am 14.2 9.3 6.8 61 3.6 ESE 22 32 12 17 1016.8 1016.8 0.0
27/04:30am 14.0 10.6 7.8 66 3.1 SE 15 26 8 14 1016.7 1016.7 0.0
27/04:00am 14.0 11.3 8.8 71 2.6 SE 13 20 7 11 1016.7 1016.7 0.0
27/03:30am 12.6 11.4 8.1 74 2.2 S 4 9 2 5 1016.7 1016.7 0.0
27/03:00am 13.2 11.5 8.3 72 2.4 SSW 7 9 4 5 1016.9 1016.9 0.0
27/02:30am 12.6 11.7 7.7 72 2.4 S 2 6 1 3 1017.2 1017.2 0.0
27/02:00am 12.7 11.7 7.2 69 2.7 SW 2 7 1 4 1017.3 1017.3 0.0
27/01:30am 12.1 10.1 7.0 71 2.4 SW 7 9 4 5 1017.5 1017.5 0.0
27/01:00am 12.9 10.6 7.4 69 2.7 SSW 9 11 5 6 1017.8 1017.8 0.0
27/12:30am 12.8 10.0 7.0 68 2.8 SSW 11 13 6 7 1018.0 1018.0 0.0
27/12:00am 13.3 10.2 7.1 66 3.0 S 13 17 7 9 1018.1 1018.1 0.0
 
Date/Time
CDT
Tmp

°C
App
Tmp
°C
Dew
Point
°C
Rel
Hum
%
Delta-T

°C
Wind Press
QNH
hPa
Press
MSL
hPa
Rain
since
9 am
mm
Dir
 
Spd
km/h
Gust
km/h
Spd
kts
Gust
kts
26/11:30pm 14.6 10.3 7.2 61 3.6 S 19 26 10 14 1018.3 1018.3 0.0
26/11:00pm 14.4 10.5 7.0 61 3.6 S 17 22 9 12 1018.4 1018.4 0.0
26/10:30pm 15.2 10.7 7.0 58 4.0 S 20 28 11 15 1018.5 1018.5 0.0
26/10:00pm 15.3 10.9 7.6 60 3.8 S 20 28 11 15 1018.4 1018.4 0.0
26/09:30pm 16.0 10.7 6.7 54 4.6 S 24 32 13 17 1018.0 1018.0 0.0
26/09:00pm 16.3 11.3 6.4 52 4.8 SSE 22 33 12 18 1017.6 1017.6 0.0
26/08:30pm 17.1 11.2 5.7 47 5.5 SSE 26 35 14 19 1017.5 1017.5 0.0
26/08:00pm 18.2 12.3 5.8 44 6.1 SSE 26 33 14 18 1017.1 1017.1 0.0
26/07:30pm 19.2 12.7 4.9 39 6.9 S 28 35 15 19 1016.8 1016.8 0.0
26/07:00pm 20.4 14.3 4.8 36 7.6 S 26 35 14 19 1016.3 1016.3 0.0
26/06:30pm 20.1 15.2 5.0 37 7.4 SE 20 28 11 15 1016.0 1016.0 0.0
26/06:00pm 21.0 16.2 5.4 36 7.7 SSE 20 28 11 15 1016.0 1016.0 0.0
26/05:30pm 21.0 17.5 5.4 36 7.7 SSE 13 22 7 12 1016.0 1016.0 0.0
26/05:00pm 21.0 16.8 5.8 37 7.6 SSE 17 28 9 15 1016.3 1016.3 0.0
26/04:30pm 21.1 17.0 6.2 38 7.5 SSE 17 24 9 13 1016.3 1016.3 0.0
26/04:00pm 20.5 15.9 6.4 40 7.1 S 20 26 11 14 1016.4 1016.4 0.0
26/03:30pm 20.5 15.7 7.2 42 6.8 SSE 22 32 12 17 1016.6 1016.6 0.0
26/03:00pm 20.4 16.7 6.4 40 7.0 SW 15 20 8 11 1016.8 1016.8 0.0
26/02:30pm 19.8 16.6 6.9 43 6.5 SSE 13 20 7 11 1016.9 1016.9 0.0
26/02:00pm 19.9 16.0 7.0 43 6.5 SE 17 24 9 13 1017.0 1017.0 0.0
26/01:30pm 20.1 16.0 6.1 40 7.0 SSW 17 28 9 15 1017.3 1017.3 0.0
26/01:00pm 20.6 16.7 6.9 41 7.0 WSW 17 22 9 12 1017.4 1017.4 0.0
26/12:30pm 19.6 15.0 6.7 43 6.5 SSW 20 30 11 16 1017.6 1017.6 0.0
26/12:00pm 19.7 14.5 7.1 44 6.4 SW 24 32 13 17 1017.5 1017.5 0.0
26/11:30am 20.2 17.0 6.9 42 6.7 SSW 13 20 7 11 1017.8 1017.8 0.0
26/11:00am 19.2 15.7 7.0 45 6.2 S 15 26 8 14 1017.9 1017.9 0.0
26/10:30am 19.5 15.2 6.9 44 6.3 SSE 19 28 10 15 1018.0 1018.0 0.0
26/10:00am 18.7 15.1 6.9 46 5.9 SSE 15 24 8 13 1018.2 1018.2 0.0
26/09:30am 18.1 15.6 8.1 52 5.1 S 11 17 6 9 1018.5 1018.5 0.0
26/09:00am 17.4 14.2 8.3 55 4.6 E 15 20 8 11 1018.7 1018.7 0.0
26/08:30am 16.9 13.7 8.6 58 4.2 SE 15 22 8 12 1018.6 1018.6 0.0
26/08:00am 16.5 13.3 8.5 59 4.1 SSE 15 20 8 11 1018.0 1018.0 0.0
26/07:30am 16.0 13.2 8.5 61 3.8 SSE 13 17 7 9 1017.9 1017.9 0.0
26/07:00am 15.7 13.2 8.4 62 3.7 SE 11 13 6 7 1017.5 1017.5 0.0

Latest Capital City Observations: Canberra | Sydney | Melbourne | Brisbane | Adelaide | Perth | Hobart | Darwin

Other Formats:

Comma delimited format used in spreadsheet applications
http://www.bom.gov.au/fwo/IDS60901/IDS60901.95677.axf

JavaScript Object Notation format (JSON) in row-major order
http://www.bom.gov.au/fwo/IDS60901/IDS60901.95677.json